createdAt,value
2022-07-26T00:01:59.957Z,64.00
2022-07-26T00:04:29.301Z,65.30
2022-07-26T00:06:57.576Z,65.40
2022-07-26T00:09:25.506Z,65.80
2022-07-26T00:11:53.546Z,64.60
2022-07-26T00:14:21.505Z,64.10
2022-07-26T00:16:49.500Z,65.60
2022-07-26T00:19:35.108Z,66.80
2022-07-26T00:22:22.099Z,66.80
2022-07-26T00:25:07.588Z,66.00
2022-07-26T00:27:53.475Z,65.40
2022-07-26T00:30:21.690Z,66.00
2022-07-26T00:32:49.598Z,65.20
2022-07-26T00:35:17.602Z,64.70
2022-07-26T00:37:47.670Z,65.30
2022-07-26T00:40:16.639Z,65.20
2022-07-26T00:42:44.685Z,64.50
2022-07-26T00:45:13.755Z,64.00
2022-07-26T00:47:41.686Z,65.00
2022-07-26T00:50:12.560Z,64.20
2022-07-26T00:52:42.416Z,63.60
2022-07-26T00:55:12.328Z,63.30
2022-07-26T00:57:40.666Z,64.30
2022-07-26T01:00:11.897Z,64.50
2022-07-26T01:02:40.441Z,66.50
2022-07-26T01:05:09.303Z,66.30
2022-07-26T01:07:38.400Z,66.10
2022-07-26T01:10:08.823Z,65.90
2022-07-26T01:12:38.037Z,65.60
2022-07-26T01:15:06.842Z,66.10
2022-07-26T01:17:36.332Z,66.50
2022-07-26T01:20:07.534Z,65.30
2022-07-26T01:22:36.853Z,65.00
2022-07-26T01:25:05.548Z,65.10
2022-07-26T01:27:34.457Z,65.70
2022-07-26T01:30:02.462Z,66.30
2022-07-26T01:32:30.391Z,64.80
2022-07-26T01:34:58.298Z,64.70
2022-07-26T01:37:26.182Z,63.30
2022-07-26T01:39:55.433Z,63.50
2022-07-26T01:42:23.316Z,64.50
2022-07-26T01:44:51.229Z,64.60
2022-07-26T01:47:19.149Z,65.00
2022-07-26T01:49:47.053Z,64.60
2022-07-26T01:52:14.954Z,64.80
2022-07-26T01:54:42.915Z,65.10
2022-07-26T01:57:12.316Z,63.60
2022-07-26T01:59:40.189Z,63.50
2022-07-26T02:02:08.253Z,64.90
2022-07-26T02:04:53.631Z,64.00
2022-07-26T02:07:21.617Z,64.10
2022-07-26T02:09:49.551Z,64.40
2022-07-26T02:12:18.759Z,65.10
2022-07-26T02:14:46.748Z,65.70
2022-07-26T02:17:14.686Z,64.80
2022-07-26T02:19:42.677Z,64.40
2022-07-26T02:22:10.805Z,64.00
2022-07-26T02:24:38.665Z,63.00
2022-07-26T02:27:07.070Z,61.70
2022-07-26T02:29:36.403Z,63.70
2022-07-26T02:32:04.975Z,65.50
2022-07-26T02:34:34.071Z,65.30
2022-07-26T02:37:02.623Z,64.80
2022-07-26T02:39:30.863Z,65.00
2022-07-26T02:42:00.824Z,65.20
2022-07-26T02:44:29.497Z,64.20
2022-07-26T02:46:58.829Z,63.60
2022-07-26T02:49:26.748Z,62.30
2022-07-26T02:51:54.658Z,62.80
2022-07-26T02:54:22.673Z,63.00
2022-07-26T02:56:50.593Z,64.60
2022-07-26T02:59:18.461Z,64.60
2022-07-26T03:01:46.390Z,64.80
2022-07-26T03:04:15.642Z,65.50
2022-07-26T03:06:43.656Z,65.10
2022-07-26T03:09:11.564Z,65.50
2022-07-26T03:11:39.570Z,66.50
2022-07-26T03:14:08.845Z,66.00
2022-07-26T03:16:37.109Z,66.10
2022-07-26T03:19:05.033Z,65.30
2022-07-26T03:21:34.251Z,64.30
2022-07-26T03:24:02.131Z,65.60
2022-07-26T03:26:30.034Z,66.10
2022-07-26T03:28:57.896Z,66.70
2022-07-26T03:31:26.051Z,65.80
2022-07-26T03:33:54.008Z,65.50
2022-07-26T03:36:21.984Z,64.80
2022-07-26T03:38:51.262Z,65.00
2022-07-26T03:41:19.171Z,64.30
2022-07-26T03:43:47.033Z,66.20
2022-07-26T03:46:14.964Z,64.20
2022-07-26T03:48:42.962Z,64.60
2022-07-26T03:51:10.966Z,64.40
2022-07-26T03:53:38.968Z,64.30
2022-07-26T03:56:25.976Z,65.50
2022-07-26T03:58:53.973Z,64.90
2022-07-26T04:01:22.071Z,65.30
2022-07-26T04:03:50.035Z,65.50
2022-07-26T04:06:18.434Z,65.90
2022-07-26T04:08:51.239Z,65.40
2022-07-26T04:11:20.536Z,64.40
2022-07-26T04:13:48.500Z,65.30
2022-07-26T04:16:16.507Z,66.10
2022-07-26T04:18:44.426Z,66.00
2022-07-26T04:21:12.354Z,65.80
2022-07-26T04:23:40.279Z,64.10
2022-07-26T04:26:08.233Z,64.70
2022-07-26T04:28:37.651Z,64.70
2022-07-26T04:31:05.706Z,61.70
2022-07-26T04:33:34.088Z,61.40
2022-07-26T04:36:02.116Z,64.70
2022-07-26T04:38:30.038Z,65.50
2022-07-26T04:40:58.223Z,64.50
2022-07-26T04:43:26.800Z,63.90
2022-07-26T04:45:57.447Z,63.50
2022-07-26T04:48:25.645Z,63.90
2022-07-26T04:50:53.833Z,64.40
2022-07-26T04:53:21.848Z,65.00
2022-07-26T04:55:49.752Z,66.90
2022-07-26T04:58:19.252Z,66.20
2022-07-26T05:01:09.096Z,65.70
2022-07-26T05:03:37.317Z,66.20
2022-07-26T05:06:05.541Z,64.40
2022-07-26T05:08:33.565Z,61.50
2022-07-26T05:11:01.558Z,62.00
2022-07-26T05:13:31.979Z,59.30
2022-07-26T05:16:00.478Z,59.10
2022-07-26T05:18:31.698Z,59.90
2022-07-26T05:21:13.799Z,58.00
2022-07-26T05:23:41.723Z,56.80
2022-07-26T05:26:09.607Z,57.00
2022-07-26T05:28:39.917Z,53.80
2022-07-26T05:31:08.315Z,54.30
2022-07-26T05:33:36.670Z,54.20
2022-07-26T05:36:05.078Z,54.40
2022-07-26T05:38:34.741Z,53.30
2022-07-26T05:41:02.754Z,53.70
2022-07-26T05:43:40.790Z,52.90
2022-07-26T05:46:10.403Z,53.60
2022-07-26T05:48:38.642Z,53.00
2022-07-26T05:51:06.606Z,52.20
2022-07-26T05:53:36.546Z,52.20
2022-07-26T05:56:04.740Z,51.60
2022-07-26T05:58:32.668Z,50.70
2022-07-26T06:01:00.810Z,46.90
2022-07-26T06:03:30.066Z,46.70
2022-07-26T06:05:59.701Z,43.70
2022-07-26T06:08:28.589Z,42.20
2022-07-26T06:10:58.605Z,41.00
2022-07-26T06:13:26.664Z,40.40
2022-07-26T06:15:54.672Z,39.30
2022-07-26T06:18:22.937Z,39.70
2022-07-26T06:20:50.983Z,40.20
2022-07-26T06:23:33.910Z,39.10
2022-07-26T06:26:05.108Z,38.80
2022-07-26T06:28:33.163Z,39.00
2022-07-26T06:31:01.082Z,37.60
2022-07-26T06:33:29.007Z,36.10
2022-07-26T06:35:56.980Z,35.80
2022-07-26T06:38:24.878Z,36.00
2022-07-26T06:40:52.802Z,38.00
2022-07-26T06:43:22.338Z,35.70
2022-07-26T06:45:50.578Z,36.90
2022-07-26T06:48:18.584Z,36.70
2022-07-26T06:50:46.603Z,34.80
2022-07-26T06:53:14.555Z,37.20
2022-07-26T06:55:42.766Z,38.00
2022-07-26T06:58:11.089Z,35.10
2022-07-26T07:00:40.409Z,35.20
2022-07-26T07:03:08.331Z,34.60
2022-07-26T07:05:36.332Z,35.20
2022-07-26T07:08:04.904Z,35.20
2022-07-26T07:10:35.254Z,34.60
2022-07-26T07:13:04.010Z,34.50
2022-07-26T07:15:31.895Z,34.40
2022-07-26T07:18:01.123Z,32.80
2022-07-26T07:20:29.462Z,32.30
2022-07-26T07:22:57.334Z,32.40
2022-07-26T07:25:30.846Z,31.40
2022-07-26T07:27:59.336Z,31.90
2022-07-26T07:30:28.028Z,31.40
2022-07-26T07:32:56.676Z,31.60
2022-07-26T07:35:32.150Z,32.60
2022-07-26T07:38:01.111Z,30.70
2022-07-26T07:40:30.235Z,31.90
2022-07-26T07:42:58.597Z,30.90
2022-07-26T07:45:26.558Z,31.10
2022-07-26T07:47:54.921Z,31.00
2022-07-26T07:50:22.813Z,30.60
2022-07-26T07:52:59.075Z,30.40
2022-07-26T07:55:44.109Z,29.50
2022-07-26T07:58:14.600Z,30.50
2022-07-26T08:00:42.968Z,29.20
2022-07-26T08:03:11.009Z,29.40
2022-07-26T08:05:40.653Z,29.80
2022-07-26T08:08:10.077Z,30.20
2022-07-26T08:10:41.721Z,29.30
2022-07-26T08:13:17.044Z,29.50
2022-07-26T08:15:49.426Z,29.80
2022-07-26T08:18:17.515Z,29.00
2022-07-26T08:20:48.065Z,29.00
2022-07-26T08:23:17.845Z,29.20
2022-07-26T08:25:55.576Z,29.50
2022-07-26T08:28:46.252Z,29.90
2022-07-26T08:31:13.411Z,29.90
2022-07-26T08:33:46.197Z,29.80
2022-07-26T08:36:15.472Z,29.60
2022-07-26T08:38:45.008Z,28.70
2022-07-26T08:41:15.832Z,28.80
2022-07-26T08:43:51.614Z,28.00
2022-07-26T08:46:25.418Z,27.60
2022-07-26T08:48:54.901Z,26.90
2022-07-26T08:51:24.644Z,27.10
2022-07-26T08:54:02.352Z,26.80
2022-07-26T08:56:34.405Z,27.90
2022-07-26T08:59:05.707Z,28.10
2022-07-26T09:01:33.920Z,28.20
2022-07-26T09:04:41.443Z,28.50
2022-07-26T09:07:10.186Z,28.80
2022-07-26T09:09:41.454Z,28.80
2022-07-26T09:12:17.814Z,29.70
2022-07-26T09:14:47.429Z,30.00
2022-07-26T09:17:16.493Z,28.40
2022-07-26T09:19:44.386Z,27.80
2022-07-26T09:22:14.667Z,26.90
2022-07-26T09:24:45.701Z,27.10
2022-07-26T09:27:15.612Z,26.30
2022-07-26T09:29:45.314Z,27.00
2022-07-26T09:32:18.021Z,26.40
2022-07-26T09:34:52.706Z,26.30
2022-07-26T09:37:34.133Z,25.00
2022-07-26T09:40:05.883Z,25.70
2022-07-26T09:42:33.814Z,25.70
2022-07-26T09:45:01.889Z,25.30
2022-07-26T09:47:40.052Z,25.90
2022-07-26T09:50:14.106Z,26.50
2022-07-26T09:52:42.147Z,26.40
2022-07-26T09:55:13.265Z,26.80
2022-07-26T09:57:41.164Z,26.50
2022-07-26T10:00:10.344Z,27.20
2022-07-26T10:02:38.318Z,28.30
2022-07-26T10:05:07.629Z,28.50
2022-07-26T10:07:36.059Z,27.80
2022-07-26T10:10:11.322Z,27.40
2022-07-26T10:12:44.088Z,26.60
2022-07-26T10:15:37.267Z,25.20
2022-07-26T10:18:06.240Z,23.80
2022-07-26T10:20:52.207Z,24.40
2022-07-26T10:23:43.261Z,23.70
2022-07-26T10:26:14.089Z,24.20
2022-07-26T10:28:43.421Z,25.50
2022-07-26T10:31:30.594Z,26.60
2022-07-26T10:34:00.443Z,26.90
2022-07-26T10:36:31.307Z,27.30
2022-07-26T10:39:01.854Z,27.30
2022-07-26T10:41:34.108Z,28.30
2022-07-26T10:44:14.309Z,27.30
2022-07-26T10:46:56.856Z,26.90
2022-07-26T10:49:30.906Z,25.80
2022-07-26T10:52:13.659Z,25.90
2022-07-26T10:55:09.343Z,25.90
2022-07-26T10:57:39.000Z,25.80
2022-07-26T11:00:16.012Z,25.80
2022-07-26T11:02:44.759Z,25.00
2022-07-26T11:05:14.990Z,23.30
2022-07-26T11:07:52.169Z,22.80
2022-07-26T11:10:33.768Z,23.30
2022-07-26T11:13:09.466Z,22.80
2022-07-26T11:15:41.653Z,22.20
2022-07-26T11:18:21.305Z,22.30
2022-07-26T11:20:51.400Z,23.00
2022-07-26T11:23:30.700Z,24.00
2022-07-26T11:26:18.027Z,24.40
2022-07-26T11:28:55.271Z,22.50
2022-07-26T11:31:50.652Z,21.20
2022-07-26T11:34:19.381Z,21.10
2022-07-26T11:36:48.380Z,20.50
2022-07-26T11:39:21.319Z,20.90
2022-07-26T11:41:49.771Z,21.40
2022-07-26T11:44:19.646Z,21.50
2022-07-26T11:46:50.565Z,22.40
2022-07-26T11:49:19.751Z,22.20
2022-07-26T11:51:54.882Z,22.90
2022-07-26T11:54:23.805Z,22.30
2022-07-26T11:56:53.384Z,20.90
2022-07-26T11:59:21.890Z,21.70
2022-07-26T12:01:52.729Z,22.20
2022-07-26T12:04:23.023Z,23.40
2022-07-26T12:06:51.347Z,23.00
2022-07-26T12:09:33.755Z,23.80
2022-07-26T12:12:02.868Z,24.00
2022-07-26T12:14:32.339Z,24.10
2022-07-26T12:17:12.600Z,25.10
2022-07-26T12:19:41.301Z,25.90
2022-07-26T12:22:12.124Z,26.10
2022-07-26T12:24:43.772Z,26.80
2022-07-26T12:27:14.203Z,26.90
2022-07-26T12:29:43.639Z,26.90
2022-07-26T12:32:15.120Z,26.70
2022-07-26T12:34:55.031Z,26.70
2022-07-26T12:37:27.068Z,26.70
2022-07-26T12:40:06.828Z,27.70
2022-07-26T12:42:36.767Z,27.40
2022-07-26T12:45:06.546Z,27.40
2022-07-26T12:47:36.284Z,27.30
2022-07-26T12:50:04.612Z,27.40
2022-07-26T12:52:33.722Z,26.90
2022-07-26T12:55:03.026Z,26.90
2022-07-26T12:57:30.888Z,26.70
2022-07-26T12:59:59.075Z,26.30
2022-07-26T13:02:27.398Z,25.90
2022-07-26T13:05:00.190Z,25.80
2022-07-26T13:07:28.806Z,27.00
2022-07-26T13:10:22.591Z,27.40
2022-07-26T13:12:45.023Z,26.20
2022-07-26T13:15:13.061Z,25.20
2022-07-26T13:17:41.661Z,25.30
2022-07-26T13:20:11.592Z,24.70
2022-07-26T13:22:41.299Z,24.50
2022-07-26T13:25:10.506Z,24.20
2022-07-26T13:27:44.247Z,23.60
2022-07-26T13:30:13.816Z,23.70
2022-07-26T13:32:41.714Z,23.10
2022-07-26T13:35:11.415Z,24.30
2022-07-26T13:37:39.518Z,24.30
2022-07-26T13:40:08.676Z,24.60
2022-07-26T13:42:38.409Z,25.00
2022-07-26T13:45:07.467Z,25.50
2022-07-26T13:47:35.344Z,25.80
2022-07-26T13:50:03.418Z,26.30
2022-07-26T13:52:32.647Z,26.60
2022-07-26T13:55:00.535Z,26.90
2022-07-26T13:57:47.122Z,26.50
2022-07-26T14:00:16.908Z,26.80
2022-07-26T14:02:44.902Z,27.30
2022-07-26T14:05:12.849Z,27.50
2022-07-26T14:07:43.303Z,27.40
2022-07-26T14:10:11.563Z,28.20
2022-07-26T14:12:40.726Z,28.50
2022-07-26T14:15:14.082Z,27.70
2022-07-26T14:17:45.513Z,27.90
2022-07-26T14:20:13.786Z,27.90
2022-07-26T14:22:43.034Z,28.60
2022-07-26T14:25:11.403Z,28.30
2022-07-26T14:27:39.272Z,27.00
2022-07-26T14:30:08.173Z,27.10
2022-07-26T14:32:36.223Z,27.10
2022-07-26T14:35:04.202Z,27.00
2022-07-26T14:37:43.041Z,27.00
2022-07-26T14:40:15.864Z,27.00
2022-07-26T14:42:43.905Z,26.70
2022-07-26T14:45:12.326Z,26.80
2022-07-26T14:47:40.422Z,28.10
2022-07-26T14:50:09.941Z,27.90
2022-07-26T14:52:39.031Z,27.80
2022-07-26T14:55:07.781Z,28.10
2022-07-26T14:57:39.890Z,28.10
2022-07-26T15:00:09.544Z,27.50
2022-07-26T15:02:40.882Z,27.60
2022-07-26T15:05:09.685Z,27.30
2022-07-26T15:07:37.595Z,27.40
2022-07-26T15:10:14.074Z,28.10
2022-07-26T15:12:44.530Z,28.00
2022-07-26T15:15:12.713Z,27.50
2022-07-26T15:17:40.592Z,27.50
2022-07-26T15:20:09.530Z,27.10
2022-07-26T15:22:37.453Z,27.50
2022-07-26T15:25:06.060Z,26.70
2022-07-26T15:27:34.014Z,26.70
2022-07-26T15:30:06.129Z,27.60
2022-07-26T15:32:37.484Z,27.80
2022-07-26T15:35:07.343Z,27.60
2022-07-26T15:37:43.655Z,28.00
2022-07-26T15:40:12.886Z,28.20
2022-07-26T15:42:43.453Z,27.70
2022-07-26T15:45:14.083Z,28.20
2022-07-26T15:48:10.997Z,28.00
2022-07-26T15:50:30.700Z,28.10
2022-07-26T15:52:58.615Z,27.70
2022-07-26T15:55:26.515Z,27.50
2022-07-26T15:57:54.600Z,28.10
2022-07-26T16:00:28.430Z,28.40
2022-07-26T16:02:56.283Z,28.70
2022-07-26T16:05:24.194Z,28.60
2022-07-26T16:07:52.066Z,29.00
2022-07-26T16:10:20.293Z,28.90
2022-07-26T16:12:48.246Z,29.00
2022-07-26T16:15:16.161Z,28.80
2022-07-26T16:17:45.346Z,29.00
2022-07-26T16:20:13.362Z,29.30
2022-07-26T16:22:41.988Z,29.00
2022-07-26T16:25:13.081Z,28.90
2022-07-26T16:27:42.013Z,28.90
2022-07-26T16:30:11.182Z,29.10
2022-07-26T16:32:39.056Z,29.40
2022-07-26T16:35:09.825Z,29.80
2022-07-26T16:37:37.779Z,29.70
2022-07-26T16:40:06.887Z,29.50
2022-07-26T16:42:34.950Z,29.30
2022-07-26T16:45:02.910Z,29.40
2022-07-26T16:47:30.859Z,29.10
2022-07-26T16:49:58.755Z,29.30
2022-07-26T16:52:28.039Z,28.90
2022-07-26T16:54:55.909Z,29.10
2022-07-26T16:57:23.817Z,29.40
2022-07-26T16:59:51.716Z,30.00
2022-07-26T17:02:19.891Z,29.80
2022-07-26T17:04:47.891Z,30.10
2022-07-26T17:07:24.933Z,30.20
2022-07-26T17:09:55.743Z,30.00
2022-07-26T17:12:24.380Z,29.80
2022-07-26T17:14:52.575Z,29.30
2022-07-26T17:17:20.728Z,29.50
2022-07-26T17:19:48.765Z,28.50
2022-07-26T17:22:17.025Z,29.00
2022-07-26T17:24:44.943Z,28.00
2022-07-26T17:27:14.544Z,28.00
2022-07-26T17:29:42.534Z,27.50
2022-07-26T17:32:10.643Z,27.50
2022-07-26T17:34:38.647Z,27.30
2022-07-26T17:37:08.341Z,27.20
2022-07-26T17:39:51.784Z,27.00
2022-07-26T17:42:22.287Z,27.00
2022-07-26T17:44:50.447Z,26.80
2022-07-26T17:47:27.949Z,26.50
2022-07-26T17:50:14.061Z,26.70
2022-07-26T17:52:47.799Z,27.00
2022-07-26T17:55:15.938Z,28.30
2022-07-26T17:57:45.492Z,29.90
2022-07-26T18:00:14.631Z,30.70
2022-07-26T18:02:42.517Z,31.40
2022-07-26T18:05:12.087Z,32.30
2022-07-26T18:07:40.471Z,32.40
2022-07-26T18:10:10.040Z,33.30
2022-07-26T18:12:38.187Z,33.20
2022-07-26T18:15:08.882Z,33.20
2022-07-26T18:17:36.747Z,33.60
2022-07-26T18:20:06.187Z,34.00
2022-07-26T18:22:34.075Z,34.60
2022-07-26T18:25:01.955Z,34.70
2022-07-26T18:27:30.188Z,35.30
2022-07-26T18:29:59.231Z,35.00
2022-07-26T18:32:28.490Z,35.40
2022-07-26T18:34:56.336Z,35.20
2022-07-26T18:37:24.309Z,35.80
2022-07-26T18:39:57.295Z,36.10
2022-07-26T18:42:26.096Z,36.20
2022-07-26T18:44:54.096Z,36.20
2022-07-26T18:47:21.994Z,36.80
2022-07-26T18:49:51.584Z,36.40
2022-07-26T18:52:28.657Z,36.60
2022-07-26T18:55:00.964Z,36.50
2022-07-26T18:57:28.889Z,36.30
2022-07-26T18:59:56.765Z,36.50
2022-07-26T19:02:24.699Z,36.90
2022-07-26T19:04:54.178Z,37.10
2022-07-26T19:07:22.087Z,37.90
2022-07-26T19:09:53.650Z,38.10
2022-07-26T19:12:24.361Z,38.10
2022-07-26T19:14:52.282Z,38.20
2022-07-26T19:17:20.814Z,38.70
2022-07-26T19:19:48.678Z,38.50
2022-07-26T19:22:17.922Z,37.60
2022-07-26T19:24:46.434Z,38.00
2022-07-26T19:27:15.685Z,38.00
2022-07-26T19:29:44.071Z,38.20
2022-07-26T19:32:12.023Z,38.30
2022-07-26T19:34:39.936Z,38.60
2022-07-26T19:37:07.891Z,38.90
2022-07-26T19:39:37.222Z,39.40
2022-07-26T19:42:05.650Z,39.70
2022-07-26T19:44:33.612Z,40.30
2022-07-26T19:47:01.497Z,39.70
2022-07-26T19:49:29.741Z,39.40
2022-07-26T19:51:57.766Z,39.90
2022-07-26T19:54:25.737Z,40.10
2022-07-26T19:56:54.986Z,39.80
2022-07-26T19:59:24.166Z,40.00
2022-07-26T20:01:55.135Z,40.60
2022-07-26T20:04:26.080Z,40.40
2022-07-26T20:06:55.107Z,40.40
2022-07-26T20:09:23.179Z,40.60
2022-07-26T20:11:51.805Z,41.00
2022-07-26T20:14:21.488Z,41.00
2022-07-26T20:16:54.263Z,40.90
2022-07-26T20:19:24.370Z,41.60
2022-07-26T20:21:52.340Z,40.90
2022-07-26T20:24:20.272Z,41.30
2022-07-26T20:26:48.200Z,41.50
2022-07-26T20:29:16.247Z,41.60
2022-07-26T20:31:45.804Z,42.00
2022-07-26T20:34:14.017Z,41.00
2022-07-26T20:36:42.183Z,41.90
2022-07-26T20:39:10.819Z,42.40
2022-07-26T20:41:39.126Z,42.40
2022-07-26T20:44:07.050Z,42.30
2022-07-26T20:46:39.750Z,42.30
2022-07-26T20:49:10.408Z,42.50
2022-07-26T20:51:39.166Z,42.40
2022-07-26T20:54:08.604Z,42.30
2022-07-26T20:56:36.738Z,42.40
2022-07-26T20:59:05.473Z,42.80
2022-07-26T21:01:34.667Z,42.20
2022-07-26T21:04:03.193Z,42.70
2022-07-26T21:06:33.863Z,42.80
2022-07-26T21:09:09.053Z,42.90
2022-07-26T21:11:38.672Z,43.50
2022-07-26T21:14:07.279Z,42.80
2022-07-26T21:16:35.240Z,42.90
2022-07-26T21:19:03.476Z,43.20
2022-07-26T21:21:34.169Z,43.40
2022-07-26T21:24:02.182Z,43.40
2022-07-26T21:26:30.398Z,43.40
2022-07-26T21:28:58.377Z,43.70
2022-07-26T21:31:26.458Z,43.80
2022-07-26T21:33:54.329Z,44.00
2022-07-26T21:36:22.297Z,44.70
2022-07-26T21:38:51.607Z,45.20
2022-07-26T21:41:19.507Z,45.10
2022-07-26T21:43:47.410Z,44.60
2022-07-26T21:46:15.404Z,45.00
2022-07-26T21:48:43.387Z,44.60
2022-07-26T21:51:11.369Z,44.60
2022-07-26T21:53:39.253Z,44.60
2022-07-26T21:56:08.548Z,44.70
2022-07-26T21:58:37.134Z,44.90
2022-07-26T22:01:06.477Z,45.70
2022-07-26T22:03:36.807Z,45.80
2022-07-26T22:06:05.542Z,47.60
2022-07-26T22:08:33.757Z,47.70
2022-07-26T22:11:01.737Z,47.10
2022-07-26T22:13:31.091Z,47.20
2022-07-26T22:15:59.027Z,46.60
2022-07-26T22:18:27.241Z,46.40
2022-07-26T22:20:55.715Z,45.80
2022-07-26T22:23:29.912Z,45.60
2022-07-26T22:25:58.963Z,45.40
2022-07-26T22:28:26.879Z,45.30
2022-07-26T22:30:56.437Z,45.20
2022-07-26T22:33:24.551Z,45.60
2022-07-26T22:35:52.960Z,45.70
2022-07-26T22:38:20.942Z,45.80
2022-07-26T22:40:49.065Z,45.80
2022-07-26T22:43:17.049Z,45.40
2022-07-26T22:45:44.976Z,45.50
2022-07-26T22:48:14.351Z,45.70
2022-07-26T22:50:42.276Z,45.50
2022-07-26T22:53:10.195Z,45.40
2022-07-26T22:55:38.320Z,45.80
2022-07-26T22:58:06.289Z,46.80
2022-07-26T23:00:34.386Z,47.20
2022-07-26T23:03:02.400Z,47.30
2022-07-26T23:05:38.269Z,47.90
2022-07-26T23:08:44.423Z,48.50
2022-07-26T23:11:02.853Z,48.10
2022-07-26T23:13:30.762Z,48.70
2022-07-26T23:16:01.121Z,48.70
2022-07-26T23:18:29.804Z,48.10
2022-07-26T23:20:59.134Z,48.50
2022-07-26T23:23:29.523Z,48.50
2022-07-26T23:25:58.327Z,48.60
2022-07-26T23:28:36.596Z,48.60
2022-07-26T23:31:10.285Z,48.50
2022-07-26T23:33:53.158Z,48.60
2022-07-26T23:36:24.983Z,49.00
2022-07-26T23:38:53.070Z,49.00
2022-07-26T23:41:21.076Z,48.80
2022-07-26T23:43:49.081Z,48.50
2022-07-26T23:46:17.182Z,48.90
2022-07-26T23:48:45.247Z,49.00
2022-07-26T23:51:13.268Z,49.40
2022-07-26T23:53:42.508Z,49.70
2022-07-26T23:56:10.681Z,49.80
2022-07-26T23:58:38.768Z,50.60
